Time;durP1;ratioP1;P1;durP2;ratioP2;P2;SDS_P1;SDS_P2;PMS_P1;PMS_P2;Temp;Humidity;BMP_temperature;BMP_pressure;BME280_temperature;BME280_humidity;BME280_pressure;Samples;Min_cycle;Max_cycle;Signal;HPM_P1;HPM_P2
2022/07/18 00:01:41;;;;;;;17.95;5.30;;;18.00;99.90;;;;;;4982539;28;20489;-55
2022/07/18 00:04:07;;;;;;;8.98;5.15;;;17.90;99.90;;;;;;4980757;28;20107;-55
2022/07/18 00:06:32;;;;;;;7.35;5.57;;;17.90;99.90;;;;;;4984276;28;20057;-56
2022/07/18 00:08:58;;;;;;;8.95;5.70;;;17.80;99.90;;;;;;4990372;28;20500;-56
2022/07/18 00:11:24;;;;;;;10.02;5.03;;;17.70;99.90;;;;;;4981660;28;20100;-56
2022/07/18 00:13:51;;;;;;;10.73;5.65;;;17.70;99.90;;;;;;4981266;28;20085;-57
2022/07/18 00:16:17;;;;;;;8.55;5.57;;;17.70;99.90;;;;;;4981602;28;20069;-55
2022/07/18 00:18:43;;;;;;;10.23;5.75;;;17.70;99.90;;;;;;4982062;28;20046;-55
2022/07/18 00:21:09;;;;;;;9.52;5.47;;;17.60;99.90;;;;;;4982250;28;20406;-54
2022/07/18 00:23:35;;;;;;;10.15;5.28;;;17.60;99.90;;;;;;4980899;28;20658;-55
2022/07/18 00:26:01;;;;;;;8.38;5.57;;;17.60;99.90;;;;;;4981621;28;20113;-56
2022/07/18 00:28:27;;;;;;;8.82;5.68;;;17.50;99.90;;;;;;4981905;28;20077;-56
2022/07/18 00:30:53;;;;;;;7.10;5.45;;;17.50;99.90;;;;;;4981233;28;20053;-55
2022/07/18 00:33:18;;;;;;;9.30;6.22;;;17.50;99.90;;;;;;4981798;28;20098;-56
2022/07/18 00:35:44;;;;;;;9.68;6.30;;;17.50;99.90;;;;;;4981404;28;20128;-54
2022/07/18 00:38:09;;;;;;;10.65;6.05;;;17.50;99.90;;;;;;4981970;28;20077;-56
2022/07/18 00:40:35;;;;;;;8.98;5.78;;;17.50;99.90;;;;;;4980648;28;20045;-56
2022/07/18 00:43:01;;;;;;;8.52;6.00;;;17.50;99.90;;;;;;4981390;28;20630;-54
2022/07/18 00:45:27;;;;;;;9.60;6.20;;;17.50;99.90;;;;;;4981461;28;20043;-55
2022/07/18 00:47:53;;;;;;;8.73;6.22;;;17.40;99.90;;;;;;4981641;28;20042;-55
2022/07/18 00:50:20;;;;;;;9.07;6.00;;;17.40;99.90;;;;;;4980548;28;20038;-56
2022/07/18 00:52:47;;;;;;;7.78;5.63;;;17.30;99.90;;;;;;4981609;28;20496;-58
2022/07/18 00:55:12;;;;;;;8.25;5.60;;;17.30;99.90;;;;;;4982203;28;20780;-56
2022/07/18 00:57:40;;;;;;;8.38;5.85;;;17.30;99.90;;;;;;4981362;28;20133;-55
2022/07/18 01:02:54;;;;;;;8.05;5.65;;;17.30;99.90;;;;;;4981549;28;20056;-57
2022/07/18 01:05:20;;;;;;;9.07;5.90;;;17.20;99.90;;;;;;4979910;28;20046;-55
2022/07/18 01:07:46;;;;;;;8.80;5.65;;;17.20;99.90;;;;;;4992137;28;20700;-58
2022/07/18 01:10:12;;;;;;;9.48;6.10;;;17.20;99.90;;;;;;4981379;28;20172;-56
2022/07/18 01:12:38;;;;;;;8.85;6.15;;;17.20;99.90;;;;;;4981148;28;20050;-57
2022/07/18 01:15:05;;;;;;;9.88;6.18;;;17.10;99.90;;;;;;4982333;23;20058;-59
2022/07/18 01:17:31;;;;;;;9.32;6.55;;;17.40;99.90;;;;;;4964079;28;20433;-56
2022/07/18 01:19:56;;;;;;;8.55;6.45;;;17.10;99.90;;;;;;4961140;28;20042;-56
2022/07/18 01:22:22;;;;;;;12.52;7.10;;;17.00;99.90;;;;;;4964443;28;20046;-56
2022/07/18 01:24:48;;;;;;;10.60;6.93;;;17.00;99.90;;;;;;4965452;28;20051;-56
2022/07/18 01:27:20;;;;;;;12.68;6.88;;;16.90;99.90;;;;;;4965641;28;20515;-55
2022/07/18 01:29:49;;;;;;;8.98;6.72;;;16.90;99.90;;;;;;4965547;28;20383;-55
2022/07/18 01:32:15;;;;;;;10.15;6.97;;;16.80;99.90;;;;;;4963714;28;20137;-57
2022/07/18 01:34:42;;;;;;;9.45;7.00;;;16.60;99.90;;;;;;4964809;28;20043;-56
2022/07/18 01:37:08;;;;;;;9.23;6.80;;;16.70;99.90;;;;;;4965011;28;20046;-55
2022/07/18 01:39:35;;;;;;;8.82;6.53;;;16.60;99.90;;;;;;4963189;28;20631;-55
2022/07/18 01:42:08;;;;;;;9.88;6.55;;;16.70;99.90;;;;;;4965112;28;20043;-54
2022/07/18 01:44:35;;;;;;;8.98;6.60;;;16.80;99.90;;;;;;4964905;28;20105;-55
2022/07/18 01:47:03;;;;;;;11.43;7.18;;;16.70;99.90;;;;;;4965193;28;20038;-55
2022/07/18 01:49:32;;;;;;;10.52;7.15;;;16.70;99.90;;;;;;4964047;28;20138;-55
2022/07/18 01:51:58;;;;;;;12.25;7.25;;;16.70;99.90;;;;;;4963659;28;20047;-55
2022/07/18 01:54:25;;;;;;;9.45;7.15;;;16.70;99.90;;;;;;4964393;28;20043;-56
2022/07/18 01:56:51;;;;;;;9.80;7.22;;;16.80;99.90;;;;;;4964276;28;20106;-55
2022/07/18 01:59:17;;;;;;;11.82;7.13;;;16.70;99.90;;;;;;4964256;28;20050;-56
2022/07/18 02:01:43;;;;;;;13.10;8.45;;;16.70;99.90;;;;;;4965438;28;20105;-54
2022/07/18 02:04:09;;;;;;;12.15;7.40;;;16.70;99.90;;;;;;4964142;28;20043;-54
2022/07/18 02:06:35;;;;;;;11.55;7.53;;;16.70;99.90;;;;;;4964962;28;20065;-55
2022/07/18 02:09:01;;;;;;;12.40;7.03;;;16.60;99.90;;;;;;4971707;28;20885;-57
2022/07/18 02:11:26;;;;;;;12.25;8.35;;;16.70;99.90;;;;;;4964435;28;20595;-55
2022/07/18 02:13:52;;;;;;;11.27;7.72;;;16.60;99.90;;;;;;4964138;28;20426;-56
2022/07/18 02:16:18;;;;;;;10.38;7.47;;;16.60;99.90;;;;;;4964064;28;20057;-56
2022/07/18 02:18:44;;;;;;;10.52;7.68;;;16.60;99.90;;;;;;4964242;28;20441;-56
2022/07/18 02:21:10;;;;;;;9.93;7.55;;;16.50;99.90;;;;;;4964471;28;20074;-55
2022/07/18 02:23:36;;;;;;;9.27;6.95;;;16.50;99.90;;;;;;4963849;28;20513;-56
2022/07/18 02:26:02;;;;;;;9.40;7.25;;;16.40;99.90;;;;;;4964143;28;20046;-56
2022/07/18 02:28:27;;;;;;;10.73;7.80;;;16.40;99.90;;;;;;4964368;28;20043;-56
2022/07/18 02:30:53;;;;;;;11.05;7.43;;;16.40;99.90;;;;;;4964178;28;20078;-55
2022/07/18 02:33:19;;;;;;;9.95;7.57;;;16.30;99.90;;;;;;4961733;28;20078;-55
2022/07/18 02:35:45;;;;;;;12.38;7.80;;;16.30;99.90;;;;;;4964845;28;20116;-56
2022/07/18 02:38:10;;;;;;;10.68;7.85;;;16.30;99.90;;;;;;4964152;28;20083;-56
2022/07/18 02:40:37;;;;;;;10.63;7.15;;;16.30;99.90;;;;;;4963868;28;20046;-57
2022/07/18 02:43:03;;;;;;;13.57;7.47;;;16.30;99.90;;;;;;4978215;28;20042;-54
2022/07/18 02:45:29;;;;;;;8.68;6.70;;;16.20;99.90;;;;;;4964207;28;20050;-55
2022/07/18 02:47:54;;;;;;;10.32;7.22;;;16.20;99.90;;;;;;4963912;28;20051;-56
2022/07/18 02:50:20;;;;;;;10.20;7.13;;;16.10;99.90;;;;;;4962911;28;20047;-55
2022/07/18 02:52:46;;;;;;;11.55;7.30;;;16.20;99.90;;;;;;4963857;28;20526;-55
2022/07/18 02:55:13;;;;;;;10.27;7.47;;;16.10;99.90;;;;;;4964231;28;20473;-55
2022/07/18 02:57:39;;;;;;;10.60;7.07;;;16.10;99.90;;;;;;4963494;28;20089;-54
2022/07/18 03:00:07;;;;;;;10.38;7.55;;;16.20;99.90;;;;;;4963193;28;20054;-54
2022/07/18 03:02:33;;;;;;;11.40;7.38;;;16.10;99.90;;;;;;4963257;28;20049;-55
2022/07/18 03:04:59;;;;;;;11.15;7.80;;;16.10;99.90;;;;;;4962728;28;20050;-56
2022/07/18 03:07:24;;;;;;;10.50;7.20;;;16.10;99.90;;;;;;4971753;28;20050;-55
2022/07/18 03:09:50;;;;;;;10.75;7.72;;;16.20;99.90;;;;;;4965471;28;20042;-54
2022/07/18 03:12:17;;;;;;;12.85;7.78;;;16.20;99.90;;;;;;4963531;28;20093;-56
2022/07/18 03:14:42;;;;;;;12.68;7.70;;;16.20;99.90;;;;;;4963470;28;20078;-57
2022/07/18 03:17:08;;;;;;;10.15;7.45;;;16.10;99.90;;;;;;4963602;28;20038;-55
2022/07/18 03:19:35;;;;;;;12.02;8.20;;;16.10;99.90;;;;;;4960648;28;20085;-55
2022/07/18 03:22:01;;;;;;;15.93;8.68;;;16.00;99.90;;;;;;4963318;28;20129;-56
2022/07/18 03:24:27;;;;;;;12.30;8.27;;;16.10;99.90;;;;;;4962703;28;20126;-56
2022/07/18 03:26:52;;;;;;;11.18;8.05;;;16.00;99.90;;;;;;4962920;28;20118;-56
2022/07/18 03:29:18;;;;;;;10.65;7.57;;;16.00;99.90;;;;;;4962577;28;20070;-55
2022/07/18 03:31:44;;;;;;;12.10;7.28;;;16.00;99.90;;;;;;4963246;28;20043;-56
2022/07/18 03:34:10;;;;;;;11.63;8.00;;;15.90;99.90;;;;;;4962278;28;20069;-54
2022/07/18 03:36:36;;;;;;;11.75;7.95;;;15.90;99.90;;;;;;4961804;28;20081;-55
2022/07/18 03:39:03;;;;;;;10.27;7.50;;;15.90;99.90;;;;;;4963195;28;20199;-55
2022/07/18 03:41:29;;;;;;;11.32;7.90;;;15.90;99.90;;;;;;4962645;28;20041;-54
2022/07/18 03:43:54;;;;;;;12.15;7.78;;;15.90;99.90;;;;;;4963042;28;20043;-55
2022/07/18 03:46:20;;;;;;;10.95;7.60;;;15.90;99.90;;;;;;4977207;28;20046;-54
2022/07/18 03:48:46;;;;;;;12.65;7.75;;;15.90;99.90;;;;;;4962398;28;20043;-57
2022/07/18 03:51:11;;;;;;;12.63;7.20;;;15.90;99.90;;;;;;4963118;28;20058;-54
2022/07/18 03:53:37;;;;;;;11.80;7.47;;;16.00;99.90;;;;;;4962729;28;20093;-54
2022/07/18 03:56:03;;;;;;;11.13;7.90;;;16.00;99.90;;;;;;4961108;28;20046;-55
2022/07/18 03:58:29;;;;;;;13.20;7.30;;;16.10;99.90;;;;;;4962496;28;20056;-53
2022/07/18 04:00:54;;;;;;;10.98;7.28;;;16.20;99.90;;;;;;4962997;28;20047;-55
2022/07/18 04:03:20;;;;;;;9.60;7.38;;;16.10;99.90;;;;;;4961158;28;20050;-55
2022/07/18 04:05:46;;;;;;;10.73;7.45;;;16.10;99.90;;;;;;4962870;28;20609;-56
2022/07/18 04:08:12;;;;;;;10.43;7.70;;;16.10;99.90;;;;;;4973558;28;20133;-55
2022/07/18 04:10:39;;;;;;;9.93;7.40;;;16.00;99.90;;;;;;4962488;28;20042;-56
2022/07/18 04:13:06;;;;;;;10.10;7.30;;;16.00;99.90;;;;;;4961552;28;20047;-54
2022/07/18 04:15:32;;;;;;;11.68;7.50;;;16.00;99.90;;;;;;4962458;28;20050;-55
2022/07/18 04:17:58;;;;;;;11.00;7.60;;;16.00;99.90;;;;;;4961488;28;20564;-55
2022/07/18 04:20:24;;;;;;;11.07;7.35;;;16.00;99.90;;;;;;4961308;28;20178;-55
2022/07/18 04:22:55;;;;;;;10.90;7.15;;;16.10;99.90;;;;;;4961783;28;20097;-56
2022/07/18 04:25:23;;;;;;;10.85;7.43;;;16.10;99.90;;;;;;4962267;28;20062;-55
2022/07/18 04:27:49;;;;;;;10.80;6.78;;;16.10;99.90;;;;;;4962150;28;20086;-56
2022/07/18 04:30:17;;;;;;;12.13;7.18;;;16.00;99.90;;;;;;4962026;28;20058;-54
2022/07/18 04:32:43;;;;;;;9.73;7.05;;;16.00;99.90;;;;;;4962142;28;20051;-55
2022/07/18 04:35:11;;;;;;;10.48;7.30;;;16.00;99.90;;;;;;4962403;28;20039;-55
2022/07/18 04:37:37;;;;;;;8.85;6.82;;;16.00;99.90;;;;;;4962020;28;20057;-54
2022/07/18 04:40:04;;;;;;;8.50;6.90;;;16.10;99.90;;;;;;4960619;28;20179;-55
2022/07/18 04:42:32;;;;;;;12.93;7.22;;;16.30;99.90;;;;;;4961861;28;20050;-55
2022/07/18 04:44:58;;;;;;;10.30;6.82;;;16.30;99.90;;;;;;4962170;28;20043;-54
2022/07/18 04:47:25;;;;;;;12.20;6.72;;;16.40;99.90;;;;;;4961497;28;20125;-54
2022/07/18 04:49:51;;;;;;;9.48;6.40;;;16.50;99.90;;;;;;4961497;28;20126;-55
2022/07/18 04:52:17;;;;;;;12.85;6.75;;;16.60;99.90;;;;;;4962064;28;20047;-55
2022/07/18 04:54:42;;;;;;;8.82;5.70;;;16.80;99.90;;;;;;4960882;28;20130;-56
2022/07/18 04:57:11;;;;;;;7.97;5.90;;;17.00;99.90;;;;;;4965095;28;20046;-57
2022/07/18 04:59:41;;;;;;;10.82;5.95;;;17.20;99.90;;;;;;4965373;28;20073;-54
2022/07/18 05:02:07;;;;;;;8.75;6.45;;;17.20;99.90;;;;;;4965553;28;20116;-56
2022/07/18 05:04:33;;;;;;;11.80;6.38;;;17.20;99.90;;;;;;4963088;28;20141;-56
2022/07/18 05:06:59;;;;;;;9.77;6.38;;;17.10;99.90;;;;;;4970707;28;20035;-55
2022/07/18 05:09:25;;;;;;;8.70;6.15;;;17.10;99.90;;;;;;4971123;28;20066;-55
2022/07/18 05:11:51;;;;;;;9.27;6.07;;;17.00;99.90;;;;;;4965334;28;20512;-55
2022/07/18 05:14:17;;;;;;;10.23;6.68;;;16.90;99.90;;;;;;4964102;28;20067;-56
2022/07/18 05:16:42;;;;;;;11.40;6.10;;;17.20;99.90;;;;;;4966180;28;20050;-56
2022/07/18 05:19:08;;;;;;;10.85;5.90;;;16.90;99.90;;;;;;4964805;28;20068;-56
2022/07/18 05:21:34;;;;;;;8.38;5.85;;;16.90;99.90;;;;;;4965086;28;20129;-55
2022/07/18 05:23:59;;;;;;;10.00;5.88;;;16.90;99.90;;;;;;4964430;28;20047;-56
2022/07/18 05:26:25;;;;;;;9.07;5.90;;;16.90;99.90;;;;;;4964822;28;20053;-54
2022/07/18 05:28:51;;;;;;;9.48;6.13;;;16.90;99.90;;;;;;4965261;28;20052;-55
2022/07/18 05:31:16;;;;;;;10.18;5.70;;;16.90;99.90;;;;;;4965067;28;20097;-56
2022/07/18 05:33:42;;;;;;;8.98;5.78;;;16.90;99.90;;;;;;4964248;28;20392;-57
2022/07/18 05:36:08;;;;;;;10.60;6.70;;;16.90;99.90;;;;;;4964951;28;20046;-55
2022/07/18 05:38:34;;;;;;;11.02;6.35;;;17.00;99.90;;;;;;4964501;28;20080;-56
2022/07/18 05:41:00;;;;;;;9.63;5.78;;;17.00;99.90;;;;;;4965016;28;20043;-56
2022/07/18 05:43:25;;;;;;;9.13;5.43;;;17.00;99.90;;;;;;4964244;28;20118;-56
2022/07/18 05:45:51;;;;;;;8.90;5.28;;;17.00;99.90;;;;;;4965015;28;20406;-55
2022/07/18 05:48:16;;;;;;;10.43;5.13;;;17.10;99.90;;;;;;4963803;28;20500;-56
2022/07/18 05:50:42;;;;;;;9.10;4.68;;;17.10;99.90;;;;;;4964594;28;20049;-56
2022/07/18 05:53:08;;;;;;;9.05;4.75;;;17.20;99.90;;;;;;4964753;28;20066;-55
2022/07/18 05:55:34;;;;;;;11.13;4.90;;;17.20;99.90;;;;;;4964692;28;20070;-53
2022/07/18 05:57:59;;;;;;;9.43;5.43;;;17.30;99.90;;;;;;4964736;28;20070;-55
2022/07/18 06:00:25;;;;;;;9.90;5.28;;;17.40;99.90;;;;;;4964043;28;20133;-55
2022/07/18 06:02:50;;;;;;;12.57;4.95;;;17.30;99.90;;;;;;4963903;28;20039;-56
2022/07/18 06:05:16;;;;;;;8.63;4.55;;;17.40;99.90;;;;;;4964691;28;20141;-56
2022/07/18 06:07:42;;;;;;;8.35;4.05;;;17.50;99.90;;;;;;4975986;28;20377;-56
2022/07/18 06:10:08;;;;;;;8.45;4.53;;;17.50;99.90;;;;;;4964096;28;20047;-55
2022/07/18 06:12:34;;;;;;;6.82;3.95;;;17.60;99.90;;;;;;4964332;28;20058;-55
2022/07/18 06:15:00;;;;;;;6.97;4.30;;;17.70;99.90;;;;;;4964181;28;20449;-56
2022/07/18 06:17:27;;;;;;;8.38;3.95;;;17.70;99.90;;;;;;4963619;28;20113;-57
2022/07/18 06:19:53;;;;;;;7.22;3.90;;;17.80;99.90;;;;;;4963965;28;20053;-56
2022/07/18 06:22:20;;;;;;;5.22;3.70;;;17.90;99.90;;;;;;4963761;28;20525;-56
2022/07/18 06:24:45;;;;;;;6.35;3.40;;;18.00;99.90;;;;;;4964295;28;20410;-55
2022/07/18 06:27:11;;;;;;;6.90;2.95;;;18.10;99.90;;;;;;4964162;28;20054;-55
2022/07/18 06:29:36;;;;;;;5.78;3.55;;;18.20;99.90;;;;;;4963854;28;20050;-56
2022/07/18 06:32:02;;;;;;;6.72;3.80;;;18.30;99.90;;;;;;4964105;28;20038;-55
2022/07/18 06:34:28;;;;;;;5.38;3.83;;;18.30;99.90;;;;;;4963261;28;20085;-54
2022/07/18 06:36:54;;;;;;;7.40;3.92;;;18.40;99.90;;;;;;4963316;28;20221;-55
2022/07/18 06:39:19;;;;;;;8.65;3.58;;;18.40;99.90;;;;;;4962180;28;20145;-55
2022/07/18 06:41:45;;;;;;;8.02;3.88;;;18.60;99.90;;;;;;4963975;28;20465;-56
2022/07/18 06:44:11;;;;;;;7.28;3.42;;;18.60;99.90;;;;;;4964015;28;20110;-56
2022/07/18 06:46:37;;;;;;;12.20;4.25;;;18.80;99.90;;;;;;4962828;28;20050;-55
2022/07/18 06:49:04;;;;;;;6.60;3.40;;;18.90;99.90;;;;;;4963092;28;20043;-54
2022/07/18 06:51:29;;;;;;;5.82;3.58;;;19.60;99.90;;;;;;4963912;28;20046;-56
2022/07/18 06:53:55;;;;;;;5.38;3.30;;;19.60;99.90;;;;;;4963480;28;20518;-56
2022/07/18 06:56:21;;;;;;;7.32;3.80;;;19.90;99.90;;;;;;4962754;28;20936;-55
2022/07/18 06:58:49;;;;;;;7.55;3.35;;;20.20;99.90;;;;;;4963599;28;20039;-57
2022/07/18 07:01:17;;;;;;;8.65;3.10;;;20.30;99.90;;;;;;4962492;28;20051;-54
2022/07/18 07:03:43;;;;;;;5.43;2.80;;;20.40;99.90;;;;;;4962392;28;20433;-54
2022/07/18 07:06:09;;;;;;;5.10;2.33;;;20.60;99.90;;;;;;4966089;28;20713;-55
2022/07/18 07:08:35;;;;;;;4.90;3.20;;;20.90;99.90;;;;;;4971801;28;20091;-56
2022/07/18 07:11:01;;;;;;;4.25;2.30;;;21.20;99.90;;;;;;4962949;28;20505;-54
2022/07/18 07:13:27;;;;;;;4.43;2.45;;;21.10;99.90;;;;;;4962380;28;20055;-55
2022/07/18 07:15:52;;;;;;;6.03;2.70;;;20.90;99.90;;;;;;4963366;28;20483;-54
2022/07/18 07:18:18;;;;;;;5.70;2.60;;;21.30;99.90;;;;;;4962062;28;20050;-53
2022/07/18 07:20:44;;;;;;;4.88;2.20;;;21.30;99.90;;;;;;4963494;28;20402;-54
2022/07/18 07:23:09;;;;;;;5.65;2.20;;;21.30;99.90;;;;;;4962286;28;20043;-55
2022/07/18 07:25:37;;;;;;;4.45;2.13;;;21.40;99.90;;;;;;4961496;28;21048;-55
2022/07/18 07:28:04;;;;;;;5.72;2.30;;;21.70;99.90;;;;;;4963063;28;20109;-55
2022/07/18 07:30:30;;;;;;;8.05;2.67;;;22.00;99.90;;;;;;4962723;28;20053;-55
2022/07/18 07:32:56;;;;;;;6.03;2.63;;;22.30;99.90;;;;;;4962145;28;20038;-55
2022/07/18 07:35:22;;;;;;;6.22;2.40;;;22.50;99.90;;;;;;4962839;28;20061;-56
2022/07/18 07:37:54;;;;;;;3.95;2.03;;;22.70;99.90;;;;;;4962563;28;20046;-56
2022/07/18 07:40:20;;;;;;;4.07;2.00;;;22.40;99.90;;;;;;4961794;28;20130;-56
2022/07/18 07:42:46;;;;;;;5.60;2.40;;;22.00;99.90;;;;;;4962812;28;20034;-56
2022/07/18 07:45:13;;;;;;;4.65;2.03;;;22.30;99.90;;;;;;4963273;28;20081;-55
2022/07/18 07:47:39;;;;;;;6.65;2.58;;;22.50;99.90;;;;;;4961771;28;20089;-56
2022/07/18 07:50:07;;;;;;;5.60;2.08;;;22.70;99.90;;;;;;4961845;28;20497;-55
2022/07/18 07:52:33;;;;;;;8.18;2.40;;;22.50;99.90;;;;;;4961503;28;20047;-55
2022/07/18 07:54:58;;;;;;;5.47;2.33;;;22.70;99.90;;;;;;4962752;28;20134;-55
2022/07/18 07:57:24;;;;;;;4.35;1.80;;;22.90;99.90;;;;;;4962143;28;20604;-54
2022/07/18 07:59:49;;;;;;;4.25;1.83;;;22.60;99.90;;;;;;4961684;28;20512;-54
2022/07/18 08:02:16;;;;;;;4.65;2.15;;;22.70;99.90;;;;;;4962070;28;20051;-56
2022/07/18 08:04:42;;;;;;;5.00;2.20;;;22.80;99.90;;;;;;4962909;28;20043;-55
2022/07/18 08:07:09;;;;;;;7.75;2.55;;;22.80;99.90;;;;;;4967957;28;20408;-55
2022/07/18 08:09:35;;;;;;;5.45;2.03;;;23.00;99.90;;;;;;4966986;28;20414;-53
2022/07/18 08:12:00;;;;;;;4.65;2.08;;;23.30;99.90;;;;;;4962306;28;20045;-55
2022/07/18 08:14:26;;;;;;;4.93;2.03;;;23.30;99.90;;;;;;4962044;28;20055;-55
2022/07/18 08:16:52;;;;;;;4.10;1.80;;;23.20;99.90;;;;;;4962243;28;20042;-55
2022/07/18 08:19:17;;;;;;;5.95;1.95;;;23.50;99.90;;;;;;4961805;28;20046;-56
2022/07/18 08:21:43;;;;;;;4.68;1.88;;;23.60;99.90;;;;;;4962457;28;20133;-54
2022/07/18 08:24:09;;;;;;;4.63;1.75;;;23.60;99.90;;;;;;4961903;28;20074;-53
2022/07/18 08:26:38;;;;;;;3.83;2.15;;;23.80;99.90;;;;;;4960527;28;20042;-53
2022/07/18 08:29:05;;;;;;;3.58;1.60;;;23.80;99.90;;;;;;4960808;28;20076;-52
2022/07/18 08:31:30;;;;;;;4.93;1.90;;;23.60;99.90;;;;;;4964770;28;20039;-53
2022/07/18 08:33:56;;;;;;;6.80;2.10;;;23.60;99.90;;;;;;4964937;28;20108;-54
2022/07/18 08:36:22;;;;;;;3.45;1.60;;;23.50;99.90;;;;;;4965360;28;20093;-50
2022/07/18 08:38:48;;;;;;;6.65;2.25;;;23.50;99.90;;;;;;4966272;28;20054;-55
2022/07/18 08:41:16;;;;;;;4.25;1.80;;;23.50;99.90;;;;;;4966544;28;20354;-54
2022/07/18 08:43:43;;;;;;;4.03;1.83;;;23.70;99.90;;;;;;4965825;28;20565;-55
2022/07/18 08:46:10;;;;;;;5.45;2.05;;;23.90;99.90;;;;;;4965961;28;20117;-56
2022/07/18 08:48:36;;;;;;;3.80;1.88;;;23.80;99.90;;;;;;4976004;28;20270;-55
2022/07/18 08:51:02;;;;;;;3.60;1.80;;;24.10;99.90;;;;;;4983867;28;20093;-55
2022/07/18 08:53:28;;;;;;;4.15;1.40;;;24.30;99.90;;;;;;4983707;28;20066;-56
2022/07/18 08:55:54;;;;;;;4.57;1.65;;;24.20;99.90;;;;;;4985009;28;20042;-55
2022/07/18 08:58:20;;;;;;;4.13;2.00;;;24.40;99.90;;;;;;4984423;28;20530;-56
2022/07/18 09:00:46;;;;;;;4.93;1.75;;;24.60;99.90;;;;;;4984477;28;20081;-57
2022/07/18 09:03:12;;;;;;;5.47;1.90;;;24.80;99.90;;;;;;4983917;28;20050;-57
2022/07/18 09:05:40;;;;;;;4.32;1.85;;;24.60;99.90;;;;;;4983200;28;20084;-54
2022/07/18 09:08:15;;;;;;;2.83;1.20;;;24.50;99.90;;;;;;4972171;28;20050;-55
2022/07/18 09:11:02;;;;;;;6.18;1.90;;;24.40;99.90;;;;;;4984822;28;20108;-57
2022/07/18 09:13:33;;;;;;;6.15;2.10;;;24.40;99.90;;;;;;4984537;28;20097;-56
2022/07/18 09:16:03;;;;;;;4.85;1.65;;;24.40;99.90;;;;;;4984019;28;20046;-56
2022/07/18 09:18:30;;;;;;;5.72;1.70;;;24.10;99.90;;;;;;4982808;28;20054;-55
2022/07/18 09:21:03;;;;;;;4.70;1.92;;;24.20;99.90;;;;;;4984621;28;20438;-56
2022/07/18 09:23:31;;;;;;;7.93;1.83;;;24.00;99.90;;;;;;4982492;28;20046;-55
2022/07/18 09:25:57;;;;;;;4.43;1.80;;;24.10;99.90;;;;;;4984644;28;20454;-57
2022/07/18 09:28:23;;;;;;;5.00;1.40;;;24.30;99.90;;;;;;4984337;28;20050;-56
2022/07/18 09:30:48;;;;;;;3.92;1.80;;;24.40;99.90;;;;;;4984772;28;20092;-57
2022/07/18 09:33:15;;;;;;;2.67;1.30;;;24.50;99.90;;;;;;4983802;28;20481;-56
2022/07/18 09:35:45;;;;;;;5.20;1.65;;;24.50;99.90;;;;;;4984598;28;20133;-56
2022/07/18 09:38:13;;;;;;;4.90;1.65;;;24.50;99.90;;;;;;4984383;28;20125;-56
2022/07/18 09:40:44;;;;;;;3.95;1.75;;;24.70;99.90;;;;;;4983098;28;20386;-57
2022/07/18 09:43:12;;;;;;;4.82;1.52;;;24.80;99.90;;;;;;4983750;28;20065;-56
2022/07/18 09:45:47;;;;;;;5.65;1.77;;;24.80;99.90;;;;;;4984295;28;20535;-57
2022/07/18 09:48:15;;;;;;;4.18;1.60;;;24.80;99.90;;;;;;4983256;28;20121;-56
2022/07/18 09:50:49;;;;;;;4.53;1.55;;;25.00;99.90;;;;;;4984447;28;20050;-56
2022/07/18 09:53:19;;;;;;;3.73;1.53;;;25.00;99.90;;;;;;4983117;28;20045;-55
2022/07/18 09:56:12;;;;;;;6.43;1.85;;;25.00;99.90;;;;;;4984091;28;20390;-55
2022/07/18 09:58:50;;;;;;;4.55;1.80;;;25.10;99.90;;;;;;4982107;28;20085;-57
2022/07/18 10:01:16;;;;;;;7.57;1.42;;;25.20;99.90;;;;;;4984149;28;20072;-58
2022/07/18 10:03:41;;;;;;;3.40;1.40;;;25.50;99.90;;;;;;4983799;28;20065;-56
2022/07/18 10:06:07;;;;;;;4.75;1.65;;;25.60;99.90;;;;;;4980913;28;20042;-55
2022/07/18 10:08:34;;;;;;;5.68;1.73;;;25.60;99.90;;;;;;4972200;28;20490;-57
2022/07/18 10:11:02;;;;;;;5.05;1.58;;;25.70;99.90;;;;;;4962956;28;20129;-56
2022/07/18 10:13:30;;;;;;;5.50;1.48;;;25.60;99.90;;;;;;4964031;28;20459;-56
2022/07/18 10:15:56;;;;;;;3.80;1.60;;;25.90;99.90;;;;;;4963642;28;20055;-58
2022/07/18 10:18:23;;;;;;;7.03;1.50;;;25.90;99.90;;;;;;4962795;28;20043;-55
2022/07/18 10:21:00;;;;;;;4.22;1.50;;;26.20;99.90;;;;;;4964299;28;20382;-57
2022/07/18 10:23:32;;;;;;;4.13;1.50;;;26.20;99.90;;;;;;4963881;28;20055;-56
2022/07/18 10:26:14;;;;;;;5.28;1.77;;;26.20;99.90;;;;;;4963828;28;20047;-56
2022/07/18 10:28:55;;;;;;;5.13;1.77;;;26.30;99.90;;;;;;4963635;28;20054;-56
2022/07/18 10:31:25;;;;;;;5.25;1.58;;;26.40;99.90;;;;;;4963965;28;20970;-56
2022/07/18 10:33:52;;;;;;;6.78;1.60;;;26.60;99.90;;;;;;4963360;28;20375;-58
2022/07/18 10:36:19;;;;;;;3.72;1.88;;;26.50;99.90;;;;;;4963500;28;20047;-56
2022/07/18 10:39:20;;;;;;;4.18;1.67;;;26.50;99.90;;;;;;4963525;28;20120;-57
2022/07/18 10:41:51;;;;;;;4.80;1.70;;;26.70;99.90;;;;;;4963625;28;20050;-56
2022/07/18 10:44:31;;;;;;;8.98;1.90;;;26.80;99.90;;;;;;4963478;28;20144;-53
2022/07/18 10:47:02;;;;;;;3.13;1.40;;;26.90;99.90;;;;;;4962776;28;20050;-56
2022/07/18 10:52:33;;;;;;;3.95;1.63;;;27.40;99.90;;;;;;4963537;28;20058;-56
2022/07/18 10:55:02;;;;;;;4.38;2.05;;;27.30;99.90;;;;;;4963483;28;20053;-57
2022/07/18 10:57:34;;;;;;;4.30;1.80;;;27.40;99.90;;;;;;4963067;28;20050;-56
2022/07/18 11:00:08;;;;;;;5.53;1.73;;;27.80;99.90;;;;;;4963003;28;20113;-54
2022/07/18 11:02:40;;;;;;;4.88;1.83;;;28.00;99.90;;;;;;4962587;28;20488;-56
2022/07/18 11:05:24;;;;;;;4.65;1.80;;;28.20;99.90;;;;;;4963320;28;20054;-58
2022/07/18 11:08:02;;;;;;;6.32;2.30;;;28.10;99.90;;;;;;4977356;28;20130;-58
2022/07/18 11:10:44;;;;;;;8.50;2.38;;;28.00;99.90;;;;;;4982055;28;20405;-58
2022/07/18 11:13:24;;;;;;;4.68;2.00;;;27.90;99.90;;;;;;4982632;28;20042;-58
2022/07/18 11:16:10;;;;;;;4.82;1.98;;;27.80;99.90;;;;;;4982614;28;20058;-58
2022/07/18 11:18:39;;;;;;;6.40;2.50;;;27.80;99.90;;;;;;4981398;28;20082;-58
2022/07/18 11:21:21;;;;;;;5.10;2.30;;;28.10;99.90;;;;;;4982401;28;20050;-58
2022/07/18 11:23:49;;;;;;;3.97;2.25;;;28.00;99.90;;;;;;4981471;28;20054;-58
2022/07/18 11:26:17;;;;;;;7.00;2.40;;;28.00;99.90;;;;;;4982570;28;20045;-58
2022/07/18 11:28:43;;;;;;;6.25;2.90;;;28.40;99.90;;;;;;4982526;28;20054;-57
2022/07/18 11:31:11;;;;;;;4.40;2.53;;;28.40;99.90;;;;;;4981477;28;20078;-57
2022/07/18 11:33:40;;;;;;;3.85;2.20;;;28.50;99.30;;;;;;4981437;28;20080;-58
2022/07/18 11:36:09;;;;;;;5.18;2.78;;;28.00;99.60;;;;;;4982065;28;20089;-58
2022/07/18 11:38:38;;;;;;;5.85;2.90;;;28.50;99.60;;;;;;4981310;28;20596;-58
2022/07/18 11:41:04;;;;;;;5.72;3.30;;;28.40;99.30;;;;;;4981752;28;20535;-58
2022/07/18 11:43:30;;;;;;;6.80;3.30;;;28.90;99.60;;;;;;4981544;28;20108;-58
2022/07/18 11:46:03;;;;;;;8.32;2.88;;;28.90;99.50;;;;;;4981650;28;20438;-58
2022/07/18 11:48:29;;;;;;;;;;;29.10;99.60;;;;;;4979990;28;20050;-58
2022/07/18 11:50:55;;;;;;;5.40;2.60;;;28.90;98.70;;;;;;4982307;28;19922;-58
2022/07/18 11:53:21;;;;;;;4.93;2.42;;;29.20;99.20;;;;;;4981487;28;20129;-58
2022/07/18 11:55:48;;;;;;;5.38;2.70;;;28.80;98.30;;;;;;4981488;28;20145;-54
2022/07/18 11:58:15;;;;;;;6.60;3.35;;;29.00;98.90;;;;;;4981794;28;20046;-57
2022/07/18 12:00:42;;;;;;;5.25;2.80;;;29.10;98.80;;;;;;4980887;28;20495;-58
2022/07/18 12:03:12;;;;;;;4.70;2.72;;;29.30;98.50;;;;;;4980786;28;20291;-59
2022/07/18 12:05:49;;;;;;;5.30;3.50;;;29.40;97.90;;;;;;4979305;28;20050;-57
2022/07/18 12:08:31;;;;;;;5.13;3.08;;;29.30;97.70;;;;;;4971235;28;20054;-57
2022/07/18 12:11:36;;;;;;;6.40;3.15;;;29.00;97.80;;;;;;4980896;28;20043;-58
2022/07/18 12:14:08;;;;;;;5.97;3.38;;;29.10;97.70;;;;;;4979738;28;20058;-58
2022/07/18 12:16:41;;;;;;;4.35;2.45;;;29.50;97.60;;;;;;4980675;28;20350;-58
2022/07/18 12:19:11;;;;;;;5.78;3.30;;;29.20;97.50;;;;;;4981529;28;20046;-58
2022/07/18 12:21:53;;;;;;;4.55;3.47;;;29.40;97.60;;;;;;4980882;28;20417;-58
2022/07/18 12:24:23;;;;;;;4.80;3.20;;;29.20;96.80;;;;;;4981468;28;20042;-59
2022/07/18 12:27:13;;;;;;;5.20;3.17;;;28.80;96.90;;;;;;4981562;28;20042;-58
2022/07/18 12:30:04;;;;;;;4.63;3.30;;;29.30;96.70;;;;;;4981514;28;20103;-58
2022/07/18 12:32:43;;;;;;;5.68;3.38;;;29.20;96.70;;;;;;4980158;28;20505;-58
2022/07/18 12:35:14;;;;;;;8.05;3.47;;;29.60;97.10;;;;;;4980006;28;20058;-58
2022/07/18 12:37:40;;;;;;;4.88;3.60;;;29.90;97.40;;;;;;4980907;28;20049;-58
2022/07/18 12:40:09;;;;;;;7.65;3.40;;;29.80;96.70;;;;;;4981289;28;20093;-58
2022/07/18 12:42:38;;;;;;;7.03;3.60;;;29.60;96.70;;;;;;4981197;28;20050;-58
2022/07/18 12:45:05;;;;;;;6.15;3.40;;;29.80;96.70;;;;;;4981084;28;20050;-58
2022/07/18 12:47:31;;;;;;;6.45;3.47;;;29.70;96.30;;;;;;4979975;28;20133;-58
2022/07/18 12:49:56;;;;;;;4.90;3.35;;;30.00;96.90;;;;;;4981381;28;20134;-58
2022/07/18 12:52:23;;;;;;;5.32;3.03;;;30.00;96.80;;;;;;4980995;28;20125;-58